Nordic Philip — 5BZH2 — position and weather

sailwx.info

Track history (hours):
 
Tides and Currents Weather Stations Pressure Air Temp Water Temp Dewpoint Dewpoint Depression Visibility Wind Speed Wind Dir Waves Ship Positions

Nordic Philip

Last reported at 2015-Jul-30 01:07 UTC. Time now 2015-Jul-30 02:06 UTC.
Position N 55°41' E 007°08'.

Length 151 m; draft 6.6 m.

Type: Ship (hazmat cat A). MMSI: 212018000.

Date/timePositionNaut miles runAvg speedWind from/ knotsBaromVisibWave heightAir tempDewpointWater temp
2015-Jul-30 01:07N 55°41' E 007°08'814.0
2015-Jul-30 00:33N 55°34' E 007°05'1413.7
2015-Jul-29 23:34N 55°20' E 007°06'1413.7
2015-Jul-29 22:33N 55°06' E 007°07'1313.4
2015-Jul-29 21:34N 54°53' E 007°10'1313.3
2015-Jul-29 20:33N 54°40' E 007°16'1313.0
2015-Jul-29 19:33N 54°28' E 007°22'1212.5
2015-Jul-29 18:34N 54°16' E 007°28'1211.9
2015-Jul-29 17:33N 54°05' E 007°35'1211.9
2015-Jul-29 16:33N 53°54' E 007°45'1312.8
2015-Jul-29 15:34N 53°46' E 008°03'1211.4
2015-Jul-29 14:31N 53°35' E 008°09'0 0.0
2015-Jul-29 13:33N 53°35' E 008°09'0 0.0
2015-Jul-29 12:33N 53°35' E 008°09'0 0.0
2015-Jul-29 11:33N 53°35' E 008°09'0 0.0
2015-Jul-29 10:33N 53°35' E 008°09'0 0.0
2015-Jul-29 09:33N 53°35' E 008°09'0 0.0
2015-Jul-29 08:33N 53°35' E 008°09'0 0.0
2015-Jul-29 07:33N 53°35' E 008°09'8 7.7
2015-Jul-29 06:34N 53°42' E 008°04'1111.2
2015-Jul-29 05:33N 53°52' E 007°55'1312.5
2015-Jul-29 04:33N 53°45' E 008°12'1414.0
2015-Jul-29 03:33N 53°36' E 008°30'0 0.1
2015-Jul-29 02:32N 53°36' E 008°31'0 0.0
2015-Jul-29 01:33N 53°36' E 008°31'0 0.0
2015-Jul-29 00:30N 53°36' E 008°31'0 0.0
2015-Jul-28 23:33N 53°36' E 008°31'0 0.0
2015-Jul-28 22:30N 53°36' E 008°31'0 0.0
2015-Jul-28 21:29N 53°36' E 008°31'0 0.0
2015-Jul-28 20:31N 53°36' E 008°31'0 0.0
2015-Jul-28 19:30N 53°36' E 008°31'0 0.0
2015-Jul-28 18:31N 53°36' E 008°31'0 0.0
2015-Jul-28 17:30N 53°36' E 008°31'0 0.0
2015-Jul-28 16:30N 53°36' E 008°31'0 0.0
2015-Jul-28 15:32N 53°36' E 008°31'0 0.0
2015-Jul-28 14:30N 53°36' E 008°31'0 0.0
2015-Jul-28 13:32N 53°36' E 008°31'0 0.0
2015-Jul-28 12:33N 53°36' E 008°31'0 0.0
2015-Jul-28 11:31N 53°36' E 008°31'0 0.0
2015-Jul-28 10:32N 53°36' E 008°31'0 0.0
2015-Jul-28 09:33N 53°36' E 008°31'0 0.0
2015-Jul-28 08:32N 53°36' E 008°31'0 0.2
2015-Jul-28 07:33N 53°36' E 008°31'1312.9
2015-Jul-28 06:33N 53°44' E 008°14'1313.2
2015-Jul-28 05:33N 53°52' E 007°55'1110.5
2015-Jul-28 04:33N 54°00' E 008°05'1212.1
2015-Jul-28 03:33N 53°59' E 008°25'1413.9
2015-Jul-28 02:33N 53°51' E 008°45'1514.8
2015-Jul-28 01:33N 53°53' E 009°10'1515.1
2015-Jul-28 00:33N 53°43' E 009°29'1312.9
2015-Jul-27 23:33N 53°34' E 009°45'6 6.2
2015-Jul-27 22:31N 53°32' E 009°55'0 0.0
2015-Jul-27 21:28N 53°32' E 009°55'2 1.8
2015-Jul-27 20:33N 53°33' E 009°52'1010.1
2015-Jul-27 19:34N 53°36' E 009°36'1313.2
2015-Jul-27 18:33N 53°46' E 009°24'1211.6
2015-Jul-27 17:33N 53°53' E 009°07'1212.1
2015-Jul-27 16:33N 53°50' E 008°47'1212.0
2015-Jul-27 15:33N 53°58' E 008°31'1312.6
2015-Jul-27 14:33N 53°60' E 008°10'1615.9
2015-Jul-27 13:33N 54°06' E 007°45'1515.4
2015-Jul-27 12:34N 54°14' E 007°23'1616.1
2015-Jul-27 11:34N 54°30' E 007°17'1616.1
2015-Jul-27 10:33N 54°46' E 007°11'1515.7
2015-Jul-27 09:33N 55°01' E 007°04'1615.6
2015-Jul-27 08:34N 55°17' E 007°02'1515.5
2015-Jul-27 07:34N 55°32' E 007°04'1615.8
2015-Jul-27 06:32N 55°48' E 007°11'1616.4
2015-Jul-27 05:33N 56°04' E 007°17'1716.7
2015-Jul-27 04:32N 56°20' E 007°24'3316.5
2015-Jul-27 02:32N 56°51' E 007°47'1716.8
2015-Jul-27 01:30N 57°03' E 008°09'1616.4
2015-Jul-27 00:33N 57°12' E 008°33'1715.8
2015-Jul-26 23:30N 57°21' E 008°59'5313.4
2015-Jul-26 19:32N 57°47' E 010°24'1212.4
2015-Jul-26 18:33N 57°48' E 010°47'1414.3
2015-Jul-26 17:33N 57°38' E 011°07'1514.7
2015-Jul-26 16:33N 57°28' E 011°26'1515.1
2015-Jul-26 15:33N 57°13' E 011°35'1514.9
2015-Jul-26 14:32N 56°59' E 011°45'1414.4
2015-Jul-26 13:33N 56°46' E 011°53'1615.9
2015-Jul-26 12:33N 56°32' E 011°39'4514.9
2015-Jul-26 09:32N 56°04' E 010°34'1212.6
2015-Jul-26 08:33N 56°09' E 010°14'0 0.0
2015-Jul-26 06:31N 56°09' E 010°14'0 0.0
2015-Jul-26 05:25N 56°09' E 010°14'0 0.5
2015-Jul-26 04:33N 56°10' E 010°15'1010.2
2015-Jul-26 03:33N 56°05' E 010°31'4610.7
2015-Jul-25 23:15N 56°32' E 011°38'912.8
2015-Jul-25 22:33N 56°40' E 011°46'1211.8
2015-Jul-25 21:33N 56°52' E 011°48'1313.1
2015-Jul-25 20:33N 57°04' E 011°40'1312.9
2015-Jul-25 19:34N 57°16' E 011°32'1312.9
2015-Jul-25 18:33N 57°28' E 011°23'1313.0
2015-Jul-25 17:33N 57°37' E 011°05'1313.0
2015-Jul-25 16:32N 57°46' E 010°47'1312.8
2015-Jul-25 15:33N 57°57' E 010°35'1312.9
2015-Jul-25 14:33N 58°09' E 010°26'1513.0
2015-Jul-25 13:24N 58°23' E 010°15'1113.0
2015-Jul-25 12:33N 58°33' E 010°07'1713.1
2015-Jul-25 11:17N 58°48' E 009°55'912.1
2015-Jul-25 10:33N 58°56' E 009°49'9 8.9
2015-Jul-25 09:33N 59°02' E 010°02'0 0.1
2015-Jul-25 08:32N 59°02' E 010°02'0 0.0
2015-Jul-25 07:26N 59°02' E 010°02'0 0.0
2015-Jul-25 06:26N 59°02' E 010°02'0 0.0
2015-Jul-25 05:32N 59°02' E 010°02'0 0.0
2015-Jul-25 04:14N 59°02' E 010°02'0 0.0
2015-Jul-25 03:32N 59°02' E 010°02'0 0.0
2015-Jul-25 02:32N 59°02' E 010°02'0 0.0
2015-Jul-25 01:32N 59°02' E 010°02'0 0.0
2015-Jul-25 00:32N 59°02' E 010°02'0 0.0
2015-Jul-24 23:32N 59°02' E 010°02'0 0.0
2015-Jul-24 22:32N 59°02' E 010°02'0 0.0
2015-Jul-24 21:32N 59°02' E 010°02'1 1.4
2015-Jul-24 20:33N 59°01' E 010°03'9 9.4
2015-Jul-24 19:33N 58°58' E 010°21'1414.2
2015-Jul-24 18:33N 59°02' E 010°47'7 7.2
2015-Jul-24 17:33N 59°06' E 010°58'5 4.6
2015-Jul-24 16:33N 59°11' E 010°57'0 0.0
2015-Jul-24 09:28N 59°11' E 010°57'0 0.0
2015-Jul-24 08:28N 59°11' E 010°57'0 0.0
2015-Jul-24 07:28N 59°11' E 010°57'0 0.0
2015-Jul-24 06:31N 59°11' E 010°57'0 0.0
2015-Jul-24 05:31N 59°11' E 010°57'0 0.0
2015-Jul-24 04:31N 59°11' E 010°57'0 0.0
2015-Jul-24 03:31N 59°11' E 010°57'0 0.0
2015-Jul-24 02:31N 59°11' E 010°57'0 0.0
2015-Jul-24 01:31N 59°11' E 010°57'0 0.0
2015-Jul-24 00:32N 59°11' E 010°57'9 8.8
2015-Jul-23 23:33N 59°02' E 010°58'1312.7
2015-Jul-23 22:34N 59°10' E 010°39'1515.2
2015-Jul-23 21:33N 59°25' E 010°39'0 0.5
2015-Jul-23 20:30N 59°26' E 010°39'0 0.0
2015-Jul-23 19:30N 59°26' E 010°39'0 0.0
2015-Jul-23 18:33N 59°26' E 010°39'0 0.0
2015-Jul-23 17:33N 59°26' E 010°39'0 0.0
2015-Jul-23 16:30N 59°26' E 010°39'0 0.0
2015-Jul-23 15:33N 59°26' E 010°39'0 0.0
2015-Jul-23 14:33N 59°26' E 010°39'0 0.0
2015-Jul-23 13:33N 59°26' E 010°39'0 0.0
2015-Jul-23 12:33N 59°26' E 010°39'0 0.0
2015-Jul-23 11:32N 59°26' E 010°39'0 0.0
2015-Jul-23 10:33N 59°26' E 010°39'0 0.0
2015-Jul-23 09:32N 59°26' E 010°39'5 5.3
2015-Jul-23 08:33N 59°28' E 010°30'1110.8
2015-Jul-23 07:33N 59°38' E 010°25'0 0.0
2015-Jul-22 08:32N 59°38' E 010°25'1110.9
2015-Jul-22 07:33N 59°28' E 010°30'1616.3
2015-Jul-22 06:33N 59°12' E 010°38'1413.7
2015-Jul-22 05:33N 58°59' E 010°34'1414.4
2015-Jul-22 04:33N 58°47' E 010°17'1614.9
2015-Jul-22 03:29N 58°34' E 009°59'18915.2
2015-Jul-21 15:06N 55°49' E 007°11'916.7
2015-Jul-21 14:33N 55°40' E 007°07'1616.4
2015-Jul-21 13:33N 55°24' E 007°05'1716.6
2015-Jul-21 12:33N 55°07' E 007°05'1616.3
2015-Jul-21 11:34N 54°51' E 007°09'1616.0
2015-Jul-21 10:34N 54°36' E 007°17'1615.9
2015-Jul-21 09:34N 54°20' E 007°24'1514.7
2015-Jul-21 08:34N 54°10' E 007°42'1615.6
2015-Jul-21 07:34N 54°02' E 008°04'1615.8
2015-Jul-21 06:33N 53°58' E 008°31'1615.5
2015-Jul-21 05:34N 53°51' E 008°53'1313.4
2015-Jul-21 04:33N 53°52' E 009°16'1414.2
2015-Jul-21 03:33N 53°41' E 009°30'1111.3
2015-Jul-21 02:33N 53°34' E 009°45'6 4.4
2015-Jul-21 01:13N 53°32' E 009°55'0 0.0
2015-Jul-21 00:31N 53°32' E 009°55'0 0.0
2015-Jul-20 23:31N 53°32' E 009°55'0 0.0
2015-Jul-20 22:31N 53°32' E 009°55'0 0.0
2015-Jul-20 21:33N 53°32' E 009°55'6 5.8
2015-Jul-20 20:33N 53°34' E 009°45'1212.1
2015-Jul-20 19:33N 53°42' E 009°30'1414.4
2015-Jul-20 18:33N 53°53' E 009°14'1212.4
2015-Jul-20 17:33N 53°50' E 008°53'1313.2
2015-Jul-20 16:33N 53°58' E 008°35'1515.0
2015-Jul-20 15:33N 53°59' E 008°10'10 9.8
2015-Jul-20 14:33N 53°51' E 007°60'1616.4
2015-Jul-20 13:33N 53°41' E 008°21'8 7.5
2015-Jul-20 12:32N 53°36' E 008°31'0 0.0
2015-Jul-20 11:32N 53°36' E 008°31'0 0.0
2015-Jul-20 10:32N 53°36' E 008°31'0 0.0
2015-Jul-20 09:32N 53°36' E 008°31'0 0.0
2015-Jul-20 08:32N 53°36' E 008°31'0 0.0
2015-Jul-20 07:32N 53°36' E 008°31'0 0.0
2015-Jul-20 06:32N 53°36' E 008°31'0 0.0
2015-Jul-20 05:32N 53°36' E 008°31'0 0.0
2015-Jul-20 04:32N 53°36' E 008°31'0 0.0
2015-Jul-20 03:32N 53°36' E 008°31'0 0.0
2015-Jul-20 02:32N 53°36' E 008°31'0 0.0
2015-Jul-20 01:32N 53°36' E 008°31'  
Track history (hours):
 
Tides and Currents Weather Stations Pressure Air Temp Water Temp Dewpoint Dewpoint Depression Visibility Wind Speed Wind Dir Waves Ship Positions

Nordic Philip

Last reported at 2015-Jul-30 01:07 UTC. Time now 2015-Jul-30 02:06 UTC.
Position N 55°41' E 007°08'.

Length 151 m; draft 6.6 m.

Type: Ship (hazmat cat A). MMSI: 212018000.

Date/timePositionNaut miles runAvg speedWind from/ knotsBaromVisibWave heightAir tempDewpointWater temp
2015-Jul-30 01:07N 55°41' E 007°08'814.0
2015-Jul-30 00:33N 55°34' E 007°05'1413.7
2015-Jul-29 23:34N 55°20' E 007°06'1413.7
2015-Jul-29 22:33N 55°06' E 007°07'1313.4
2015-Jul-29 21:34N 54°53' E 007°10'1313.3
2015-Jul-29 20:33N 54°40' E 007°16'1313.0
2015-Jul-29 19:33N 54°28' E 007°22'1212.5
2015-Jul-29 18:34N 54°16' E 007°28'1211.9
2015-Jul-29 17:33N 54°05' E 007°35'1211.9
2015-Jul-29 16:33N 53°54' E 007°45'1312.8
2015-Jul-29 15:34N 53°46' E 008°03'1211.4
2015-Jul-29 14:31N 53°35' E 008°09'0 0.0
2015-Jul-29 13:33N 53°35' E 008°09'0 0.0
2015-Jul-29 12:33N 53°35' E 008°09'0 0.0
2015-Jul-29 11:33N 53°35' E 008°09'0 0.0
2015-Jul-29 10:33N 53°35' E 008°09'0 0.0
2015-Jul-29 09:33N 53°35' E 008°09'0 0.0
2015-Jul-29 08:33N 53°35' E 008°09'0 0.0
2015-Jul-29 07:33N 53°35' E 008°09'8 7.7
2015-Jul-29 06:34N 53°42' E 008°04'1111.2
2015-Jul-29 05:33N 53°52' E 007°55'1312.5
2015-Jul-29 04:33N 53°45' E 008°12'1414.0
2015-Jul-29 03:33N 53°36' E 008°30'0 0.1
2015-Jul-29 02:32N 53°36' E 008°31'0 0.0
2015-Jul-29 01:33N 53°36' E 008°31'0 0.0
2015-Jul-29 00:30N 53°36' E 008°31'0 0.0
2015-Jul-28 23:33N 53°36' E 008°31'0 0.0
2015-Jul-28 22:30N 53°36' E 008°31'0 0.0
2015-Jul-28 21:29N 53°36' E 008°31'0 0.0
2015-Jul-28 20:31N 53°36' E 008°31'0 0.0
2015-Jul-28 19:30N 53°36' E 008°31'0 0.0
2015-Jul-28 18:31N 53°36' E 008°31'0 0.0
2015-Jul-28 17:30N 53°36' E 008°31'0 0.0
2015-Jul-28 16:30N 53°36' E 008°31'0 0.0
2015-Jul-28 15:32N 53°36' E 008°31'0 0.0
2015-Jul-28 14:30N 53°36' E 008°31'0 0.0
2015-Jul-28 13:32N 53°36' E 008°31'0 0.0
2015-Jul-28 12:33N 53°36' E 008°31'0 0.0
2015-Jul-28 11:31N 53°36' E 008°31'0 0.0
2015-Jul-28 10:32N 53°36' E 008°31'0 0.0
2015-Jul-28 09:33N 53°36' E 008°31'0 0.0
2015-Jul-28 08:32N 53°36' E 008°31'0 0.2
2015-Jul-28 07:33N 53°36' E 008°31'1312.9
2015-Jul-28 06:33N 53°44' E 008°14'1313.2
2015-Jul-28 05:33N 53°52' E 007°55'1110.5
2015-Jul-28 04:33N 54°00' E 008°05'1212.1
2015-Jul-28 03:33N 53°59' E 008°25'1413.9
2015-Jul-28 02:33N 53°51' E 008°45'1514.8
2015-Jul-28 01:33N 53°53' E 009°10'1515.1
2015-Jul-28 00:33N 53°43' E 009°29'1312.9
2015-Jul-27 23:33N 53°34' E 009°45'6 6.2
2015-Jul-27 22:31N 53°32' E 009°55'0 0.0
2015-Jul-27 21:28N 53°32' E 009°55'2 1.8
2015-Jul-27 20:33N 53°33' E 009°52'1010.1
2015-Jul-27 19:34N 53°36' E 009°36'1313.2
2015-Jul-27 18:33N 53°46' E 009°24'1211.6
2015-Jul-27 17:33N 53°53' E 009°07'1212.1
2015-Jul-27 16:33N 53°50' E 008°47'1212.0
2015-Jul-27 15:33N 53°58' E 008°31'1312.6
2015-Jul-27 14:33N 53°60' E 008°10'1615.9
2015-Jul-27 13:33N 54°06' E 007°45'1515.4
2015-Jul-27 12:34N 54°14' E 007°23'1616.1
2015-Jul-27 11:34N 54°30' E 007°17'1616.1
2015-Jul-27 10:33N 54°46' E 007°11'1515.7
2015-Jul-27 09:33N 55°01' E 007°04'1615.6
2015-Jul-27 08:34N 55°17' E 007°02'1515.5
2015-Jul-27 07:34N 55°32' E 007°04'1615.8
2015-Jul-27 06:32N 55°48' E 007°11'1616.4
2015-Jul-27 05:33N 56°04' E 007°17'1716.7
2015-Jul-27 04:32N 56°20' E 007°24'3316.5
2015-Jul-27 02:32N 56°51' E 007°47'1716.8
2015-Jul-27 01:30N 57°03' E 008°09'1616.4
2015-Jul-27 00:33N 57°12' E 008°33'1715.8
2015-Jul-26 23:30N 57°21' E 008°59'5313.4
2015-Jul-26 19:32N 57°47' E 010°24'1212.4
2015-Jul-26 18:33N 57°48' E 010°47'1414.3
2015-Jul-26 17:33N 57°38' E 011°07'1514.7
2015-Jul-26 16:33N 57°28' E 011°26'1515.1
2015-Jul-26 15:33N 57°13' E 011°35'1514.9
2015-Jul-26 14:32N 56°59' E 011°45'1414.4
2015-Jul-26 13:33N 56°46' E 011°53'1615.9
2015-Jul-26 12:33N 56°32' E 011°39'4514.9
2015-Jul-26 09:32N 56°04' E 010°34'1212.6
2015-Jul-26 08:33N 56°09' E 010°14'0 0.0
2015-Jul-26 06:31N 56°09' E 010°14'0 0.0
2015-Jul-26 05:25N 56°09' E 010°14'0 0.5
2015-Jul-26 04:33N 56°10' E 010°15'1010.2
2015-Jul-26 03:33N 56°05' E 010°31'4610.7
2015-Jul-25 23:15N 56°32' E 011°38'912.8
2015-Jul-25 22:33N 56°40' E 011°46'1211.8
2015-Jul-25 21:33N 56°52' E 011°48'1313.1
2015-Jul-25 20:33N 57°04' E 011°40'1312.9
2015-Jul-25 19:34N 57°16' E 011°32'1312.9
2015-Jul-25 18:33N 57°28' E 011°23'1313.0
2015-Jul-25 17:33N 57°37' E 011°05'1313.0
2015-Jul-25 16:32N 57°46' E 010°47'1312.8
2015-Jul-25 15:33N 57°57' E 010°35'1312.9
2015-Jul-25 14:33N 58°09' E 010°26'1513.0
2015-Jul-25 13:24N 58°23' E 010°15'1113.0
2015-Jul-25 12:33N 58°33' E 010°07'1713.1
2015-Jul-25 11:17N 58°48' E 009°55'912.1
2015-Jul-25 10:33N 58°56' E 009°49'9 8.9
2015-Jul-25 09:33N 59°02' E 010°02'0 0.1
2015-Jul-25 08:32N 59°02' E 010°02'0 0.0
2015-Jul-25 07:26N 59°02' E 010°02'0 0.0
2015-Jul-25 06:26N 59°02' E 010°02'0 0.0
2015-Jul-25 05:32N 59°02' E 010°02'0 0.0
2015-Jul-25 04:14N 59°02' E 010°02'0 0.0
2015-Jul-25 03:32N 59°02' E 010°02'0 0.0
2015-Jul-25 02:32N 59°02' E 010°02'0 0.0
2015-Jul-25 01:32N 59°02' E 010°02'0 0.0
2015-Jul-25 00:32N 59°02' E 010°02'0 0.0
2015-Jul-24 23:32N 59°02' E 010°02'0 0.0
2015-Jul-24 22:32N 59°02' E 010°02'0 0.0
2015-Jul-24 21:32N 59°02' E 010°02'1 1.4
2015-Jul-24 20:33N 59°01' E 010°03'9 9.4
2015-Jul-24 19:33N 58°58' E 010°21'1414.2
2015-Jul-24 18:33N 59°02' E 010°47'7 7.2
2015-Jul-24 17:33N 59°06' E 010°58'5 4.6
2015-Jul-24 16:33N 59°11' E 010°57'0 0.0
2015-Jul-24 09:28N 59°11' E 010°57'0 0.0
2015-Jul-24 08:28N 59°11' E 010°57'0 0.0
2015-Jul-24 07:28N 59°11' E 010°57'0 0.0
2015-Jul-24 06:31N 59°11' E 010°57'0 0.0
2015-Jul-24 05:31N 59°11' E 010°57'0 0.0
2015-Jul-24 04:31N 59°11' E 010°57'0 0.0
2015-Jul-24 03:31N 59°11' E 010°57'0 0.0
2015-Jul-24 02:31N 59°11' E 010°57'0 0.0
2015-Jul-24 01:31N 59°11' E 010°57'0 0.0
2015-Jul-24 00:32N 59°11' E 010°57'9 8.8
2015-Jul-23 23:33N 59°02' E 010°58'1312.7
2015-Jul-23 22:34N 59°10' E 010°39'1515.2
2015-Jul-23 21:33N 59°25' E 010°39'0 0.5
2015-Jul-23 20:30N 59°26' E 010°39'0 0.0
2015-Jul-23 19:30N 59°26' E 010°39'0 0.0
2015-Jul-23 18:33N 59°26' E 010°39'0 0.0
2015-Jul-23 17:33N 59°26' E 010°39'0 0.0
2015-Jul-23 16:30N 59°26' E 010°39'0 0.0
2015-Jul-23 15:33N 59°26' E 010°39'0 0.0
2015-Jul-23 14:33N 59°26' E 010°39'0 0.0
2015-Jul-23 13:33N 59°26' E 010°39'0 0.0
2015-Jul-23 12:33N 59°26' E 010°39'0 0.0
2015-Jul-23 11:32N 59°26' E 010°39'0 0.0
2015-Jul-23 10:33N 59°26' E 010°39'0 0.0
2015-Jul-23 09:32N 59°26' E 010°39'5 5.3
2015-Jul-23 08:33N 59°28' E 010°30'1110.8
2015-Jul-23 07:33N 59°38' E 010°25'0 0.0
2015-Jul-22 08:32N 59°38' E 010°25'1110.9
2015-Jul-22 07:33N 59°28' E 010°30'1616.3
2015-Jul-22 06:33N 59°12' E 010°38'1413.7
2015-Jul-22 05:33N 58°59' E 010°34'1414.4
2015-Jul-22 04:33N 58°47' E 010°17'1614.9
2015-Jul-22 03:29N 58°34' E 009°59'18915.2
2015-Jul-21 15:06N 55°49' E 007°11'916.7
2015-Jul-21 14:33N 55°40' E 007°07'1616.4
2015-Jul-21 13:33N 55°24' E 007°05'1716.6
2015-Jul-21 12:33N 55°07' E 007°05'1616.3
2015-Jul-21 11:34N 54°51' E 007°09'1616.0
2015-Jul-21 10:34N 54°36' E 007°17'1615.9
2015-Jul-21 09:34N 54°20' E 007°24'1514.7
2015-Jul-21 08:34N 54°10' E 007°42'1615.6
2015-Jul-21 07:34N 54°02' E 008°04'1615.8
2015-Jul-21 06:33N 53°58' E 008°31'1615.5
2015-Jul-21 05:34N 53°51' E 008°53'1313.4
2015-Jul-21 04:33N 53°52' E 009°16'1414.2
2015-Jul-21 03:33N 53°41' E 009°30'1111.3
2015-Jul-21 02:33N 53°34' E 009°45'6 4.4
2015-Jul-21 01:13N 53°32' E 009°55'0 0.0
2015-Jul-21 00:31N 53°32' E 009°55'0 0.0
2015-Jul-20 23:31N 53°32' E 009°55'0 0.0
2015-Jul-20 22:31N 53°32' E 009°55'0 0.0
2015-Jul-20 21:33N 53°32' E 009°55'6 5.8
2015-Jul-20 20:33N 53°34' E 009°45'1212.1
2015-Jul-20 19:33N 53°42' E 009°30'1414.4
2015-Jul-20 18:33N 53°53' E 009°14'1212.4
2015-Jul-20 17:33N 53°50' E 008°53'1313.2
2015-Jul-20 16:33N 53°58' E 008°35'1515.0
2015-Jul-20 15:33N 53°59' E 008°10'10 9.8
2015-Jul-20 14:33N 53°51' E 007°60'1616.4
2015-Jul-20 13:33N 53°41' E 008°21'8 7.5
2015-Jul-20 12:32N 53°36' E 008°31'0 0.0
2015-Jul-20 11:32N 53°36' E 008°31'0 0.0
2015-Jul-20 10:32N 53°36' E 008°31'0 0.0
2015-Jul-20 09:32N 53°36' E 008°31'0 0.0
2015-Jul-20 08:32N 53°36' E 008°31'0 0.0
2015-Jul-20 07:32N 53°36' E 008°31'0 0.0
2015-Jul-20 06:32N 53°36' E 008°31'0 0.0
2015-Jul-20 05:32N 53°36' E 008°31'0 0.0
2015-Jul-20 04:32N 53°36' E 008°31'0 0.0
2015-Jul-20 03:32N 53°36' E 008°31'0 0.0
2015-Jul-20 02:32N 53°36' E 008°31'0 0.0
2015-Jul-20 01:32N 53°36' E 008°31'  

Dump ship's entire track history